Time;durP1;ratioP1;P1;durP2;ratioP2;P2;SDS_P1;SDS_P2;PMS_P1;PMS_P2;Temp;Humidity;BMP_temperature;BMP_pressure;BME280_temperature;BME280_humidity;BME280_pressure;Samples;Min_cycle;Max_cycle;Signal;HPM_P1;HPM_P2
2023/03/29 00:00:13;;;;;;;4.50;3.60;;;;;;;1.49;48.43;95281.19;4963189;28;20224;-62
2023/03/29 00:02:47;;;;;;;3.53;3.23;;;;;;;1.59;48.11;95278.91;4992683;28;20228;-62
2023/03/29 00:05:14;;;;;;;3.50;3.20;;;;;;;1.55;48.03;95273.03;4972505;28;20275;-62
2023/03/29 00:07:40;;;;;;;3.93;3.27;;;;;;;1.50;47.78;95264.75;4967684;28;20248;-63
2023/03/29 00:10:07;;;;;;;3.67;3.33;;;;;;;1.51;47.87;95266.41;4972395;28;20758;-63
2023/03/29 00:12:32;;;;;;;3.60;3.30;;;;;;;1.51;47.90;95263.81;4971821;28;20247;-62
2023/03/29 00:14:58;;;;;;;3.83;3.27;;;;;;;1.55;47.30;95262.69;4999509;28;20223;-63
2023/03/29 00:17:24;;;;;;;5.63;3.40;;;;;;;1.41;47.76;95267.84;4995910;28;20199;-63
2023/03/29 00:19:49;;;;;;;4.50;3.60;;;;;;;1.50;47.56;95265.56;4964513;28;20252;-63
2023/03/29 00:22:15;;;;;;;5.43;3.47;;;;;;;1.41;47.67;95266.09;4966285;28;20278;-64
2023/03/29 00:24:41;;;;;;;4.77;3.40;;;;;;;1.28;47.93;95270.31;4974152;28;20247;-63
2023/03/29 00:27:06;;;;;;;3.50;3.20;;;;;;;1.28;47.80;95255.63;4972217;28;20256;-63
2023/03/29 00:29:32;;;;;;;6.37;3.70;;;;;;;1.27;47.66;95266.91;4966462;28;20195;-63
2023/03/29 00:31:57;;;;;;;6.13;3.60;;;;;;;1.14;47.86;95271.13;4971873;28;20235;-65
2023/03/29 00:34:25;;;;;;;3.40;3.10;;;;;;;1.36;47.15;95257.75;4970744;28;20235;-65
2023/03/29 00:36:51;;;;;;;3.90;3.43;;;;;;;1.07;47.59;95257.72;4971761;28;20311;-66
2023/03/29 00:39:19;;;;;;;3.57;3.20;;;;;;;0.97;47.94;95256.56;4968379;28;20236;-65
2023/03/29 00:41:49;;;;;;;4.30;3.30;;;;;;;1.06;47.98;95257.78;4949477;28;20212;-66
2023/03/29 00:44:52;;;;;;;6.23;3.60;;;;;;;1.15;47.10;95266.78;4962471;28;20299;-66
2023/03/29 00:47:23;;;;;;;5.00;3.30;;;;;;;0.80;47.76;95267.91;4994368;28;20703;-63
2023/03/29 00:49:51;;;;;;;5.03;3.27;;;;;;;0.81;47.70;95264.38;4989182;28;20252;-63
2023/03/29 00:52:20;;;;;;;4.87;3.30;;;;;;;0.98;47.47;95260.81;4971203;28;20260;-63
2023/03/29 00:54:49;;;;;;;7.73;3.50;;;;;;;0.94;47.46;95264.50;4966124;28;20220;-63
2023/03/29 00:57:19;;;;;;;5.13;3.20;;;;;;;0.80;47.62;95261.84;4993444;28;20695;-64
2023/03/29 00:59:47;;;;;;;3.43;3.00;;;;;;;0.85;47.41;95260.66;4979117;28;20192;-63
2023/03/29 01:02:15;;;;;;;3.60;3.30;;;;;;;0.95;47.33;95265.34;4971668;28;20209;-63
2023/03/29 01:04:54;;;;;;;4.07;3.50;;;;;;;0.71;47.67;95264.97;4992211;28;20224;-64
2023/03/29 01:07:31;;;;;;;4.00;3.07;;;;;;;0.83;47.62;95267.72;4959484;28;20219;-64
2023/03/29 01:10:17;;;;;;;4.73;3.40;;;;;;;0.82;47.73;95271.22;4971724;28;20236;-63
2023/03/29 01:12:47;;;;;;;4.53;3.63;;;;;;;0.82;47.76;95283.31;4956203;28;20700;-63
2023/03/29 01:15:17;;;;;;;4.07;3.70;;;;;;;0.87;47.43;95284.72;4955198;28;20338;-63
2023/03/29 01:17:48;;;;;;;4.27;3.73;;;;;;;0.73;47.74;95269.16;4958157;28;20211;-64
2023/03/29 01:20:21;;;;;;;4.10;3.70;;;;;;;0.97;47.62;95273.88;4969947;28;20266;-64
2023/03/29 01:23:00;;;;;;;3.63;3.33;;;;;;;0.87;47.90;95283.91;4964899;28;20232;-63
2023/03/29 01:25:46;;;;;;;4.70;3.20;;;;;;;0.99;47.43;95288.41;4962122;28;20228;-64
2023/03/29 01:28:17;;;;;;;3.50;3.27;;;;;;;0.83;47.67;95275.47;4966510;28;20232;-64
2023/03/29 01:31:11;;;;;;;6.70;3.33;;;;;;;0.97;47.72;95285.06;4969318;28;20264;-64
2023/03/29 01:33:52;;;;;;;3.33;3.10;;;;;;;0.70;47.86;95271.91;4967335;28;20228;-65
2023/03/29 01:36:30;;;;;;;4.07;3.40;;;;;;;0.74;47.77;95283.75;4987790;28;20236;-64
2023/03/29 01:39:02;;;;;;;3.53;3.23;;;;;;;0.94;47.04;95282.63;4969505;28;20314;-64
2023/03/29 01:42:06;;;;;;;3.40;3.10;;;;;;;0.90;47.45;95288.06;4971645;28;20254;-64
2023/03/29 01:45:01;;;;;;;3.17;2.93;;;;;;;0.88;46.85;95281.25;4953033;28;20274;-65
2023/03/29 01:47:37;;;;;;;3.50;3.20;;;;;;;0.80;47.15;95270.47;4930540;29;20209;-64
2023/03/29 01:50:28;;;;;;;3.63;3.10;;;;;;;0.85;46.91;95278.78;4921753;29;20246;-64
2023/03/29 01:53:06;;;;;;;4.23;3.00;;;;;;;0.79;47.11;95273.97;4887003;29;20238;-64
2023/03/29 01:55:39;;;;;;;3.90;3.10;;;;;;;0.62;47.53;95259.41;4890983;29;20235;-64
2023/03/29 01:58:08;;;;;;;3.30;3.00;;;;;;;0.84;47.04;95264.19;4872826;29;20235;-64
2023/03/29 02:00:35;;;;;;;3.17;2.97;;;;;;;1.08;46.27;95261.97;4874884;29;20588;-64
2023/03/29 02:03:06;;;;;;;3.00;2.80;;;;;;;0.83;47.19;95259.94;4871843;29;20274;-64
2023/03/29 02:05:34;;;;;;;3.70;2.73;;;;;;;0.69;47.18;95274.56;4890427;29;20218;-64
2023/03/29 02:08:04;;;;;;;3.43;3.13;;;;;;;0.74;47.36;95277.75;4876355;29;20207;-64
2023/03/29 02:10:31;;;;;;;3.30;2.93;;;;;;;0.76;46.81;95278.50;4884979;29;20430;-64
2023/03/29 02:12:57;;;;;;;2.70;2.50;;;;;;;0.96;46.14;95278.19;4874483;29;20290;-64
2023/03/29 02:15:23;;;;;;;4.70;3.10;;;;;;;0.60;46.98;95281.09;4876205;29;20239;-64
2023/03/29 02:17:49;;;;;;;3.40;3.10;;;;;;;0.38;47.68;95274.53;4873579;29;20326;-64
2023/03/29 02:20:19;;;;;;;3.23;2.93;;;;;;;0.49;47.43;95284.28;4876224;29;20187;-64
2023/03/29 02:22:51;;;;;;;3.87;2.87;;;;;;;0.51;47.04;95290.22;4848013;29;20232;-64
2023/03/29 02:25:17;;;;;;;2.97;2.77;;;;;;;0.37;47.13;95285.78;4870272;29;20282;-64
2023/03/29 02:27:43;;;;;;;3.93;2.87;;;;;;;0.41;47.01;95282.13;4867824;29;20286;-65
2023/03/29 02:30:11;;;;;;;4.57;3.07;;;;;;;0.53;46.71;95275.41;4922218;28;20244;-65
2023/03/29 02:32:58;;;;;;;3.23;2.97;;;;;;;0.57;46.92;95287.28;4980144;28;20195;-64
2023/03/29 02:35:47;;;;;;;4.03;3.00;;;;;;;0.61;46.38;95296.53;4976637;28;20216;-64
2023/03/29 02:38:13;;;;;;;3.20;2.90;;;;;;;0.53;46.58;95295.28;4963640;28;20252;-65
2023/03/29 02:40:41;;;;;;;5.80;3.03;;;;;;;0.28;46.65;95294.03;4960422;28;20226;-64
2023/03/29 02:43:09;;;;;;;5.10;2.83;;;;;;;0.56;46.38;95290.81;4968309;28;20239;-64
2023/03/29 02:45:36;;;;;;;5.73;3.20;;;;;;;0.48;46.63;95299.88;4968751;28;20319;-64
2023/03/29 02:48:06;;;;;;;3.47;3.17;;;;;;;0.52;46.29;95309.97;4972166;28;20225;-63
2023/03/29 02:50:38;;;;;;;2.90;2.70;;;;;;;0.49;46.32;95304.97;4971350;28;20323;-63
2023/03/29 02:53:18;;;;;;;3.87;3.03;;;;;;;0.53;46.60;95315.97;4976400;28;20438;-63
2023/03/29 02:55:44;;;;;;;3.70;3.10;;;;;;;0.48;46.71;95305.06;4973938;28;20219;-63
2023/03/29 02:58:12;;;;;;;4.07;2.87;;;;;;;0.56;46.37;95321.00;4966611;28;20231;-63
2023/03/29 03:00:43;;;;;;;3.80;3.17;;;;;;;0.48;46.79;95311.06;4968545;28;20227;-64
2023/03/29 03:03:10;;;;;;;2.97;2.43;;;;;;;0.63;46.73;95301.63;4971207;28;20236;-64
2023/03/29 03:05:37;;;;;;;3.10;2.80;;;;;;;0.48;46.95;95315.41;4962508;28;20216;-65
2023/03/29 03:08:03;;;;;;;3.10;2.90;;;;;;;0.49;47.00;95320.50;4964675;28;20192;-65
2023/03/29 03:10:31;;;;;;;3.23;2.80;;;;;;;0.58;47.10;95325.16;4975645;28;20287;-65
2023/03/29 03:12:56;;;;;;;3.30;2.90;;;;;;;0.44;47.64;95323.34;4960156;28;20254;-65
2023/03/29 03:15:22;;;;;;;3.37;3.07;;;;;;;0.54;47.53;95328.03;4959415;28;20236;-65
2023/03/29 03:17:48;;;;;;;2.73;2.53;;;;;;;0.55;47.53;95322.75;4967733;28;20239;-65
2023/03/29 03:20:13;;;;;;;3.73;2.70;;;;;;;0.72;47.80;95319.22;4966823;28;20204;-65
2023/03/29 03:22:47;;;;;;;5.57;3.00;;;;;;;0.36;48.76;95324.66;4968390;28;20256;-64
2023/03/29 03:25:15;;;;;;;4.47;2.80;;;;;;;0.55;47.96;95319.34;4994323;28;20271;-66
2023/03/29 03:27:41;;;;;;;2.93;2.73;;;;;;;0.51;47.82;95328.16;4967100;28;20232;-65
2023/03/29 03:30:07;;;;;;;4.73;3.00;;;;;;;0.32;48.15;95318.84;4965357;28;20232;-65
2023/03/29 03:32:34;;;;;;;3.43;2.70;;;;;;;0.40;48.20;95336.50;4967801;28;20185;-67
2023/03/29 03:35:00;;;;;;;3.50;2.97;;;;;;;0.51;47.66;95344.56;4964239;28;20243;-68
2023/03/29 03:37:26;;;;;;;4.40;2.97;;;;;;;0.59;47.15;95351.91;4969695;28;20224;-68
2023/03/29 03:39:52;;;;;;;3.13;2.90;;;;;;;0.21;47.59;95336.66;4958740;28;20228;-67
2023/03/29 03:42:18;;;;;;;3.03;2.67;;;;;;;0.54;47.06;95328.03;4969583;28;20263;-65
2023/03/29 03:44:44;;;;;;;4.23;2.97;;;;;;;0.44;46.82;95369.91;4974502;28;20207;-68
2023/03/29 03:47:11;;;;;;;4.90;2.80;;;;;;;0.29;46.69;95346.59;4967257;28;20188;-64
2023/03/29 03:49:36;;;;;;;3.00;2.70;;;;;;;0.26;46.66;95360.53;4990250;28;20263;-65
2023/03/29 03:52:01;;;;;;;3.00;2.70;;;;;;;0.33;46.42;95350.72;4966768;28;20748;-67
2023/03/29 03:54:27;;;;;;;3.30;3.00;;;;;;;0.25;46.68;95353.69;4975497;28;20284;-67
2023/03/29 03:56:53;;;;;;;3.67;3.03;;;;;;;0.36;46.23;95366.88;4967616;28;20288;-67
2023/03/29 03:59:18;;;;;;;3.73;2.40;;;;;;;0.33;46.19;95364.47;4974242;28;20275;-67
2023/03/29 04:01:44;;;;;;;2.80;2.60;;;;;;;0.41;45.65;95357.13;4966188;28;20224;-67
2023/03/29 04:04:10;;;;;;;3.37;2.50;;;;;;;0.33;45.88;95372.22;4973805;28;20223;-67
2023/03/29 04:06:36;;;;;;;2.63;2.43;;;;;;;0.38;45.77;95372.81;4964183;28;20284;-67
2023/03/29 04:09:02;;;;;;;3.43;2.80;;;;;;;0.14;45.70;95374.13;4972817;28;20328;-67
2023/03/29 04:11:28;;;;;;;4.07;2.53;;;;;;;0.31;45.63;95376.66;4989709;28;20203;-67
2023/03/29 04:13:54;;;;;;;2.77;2.57;;;;;;;-0.07;46.18;95373.47;4965497;28;20233;-67
2023/03/29 04:16:19;;;;;;;2.60;2.40;;;;;;;0.16;45.29;95372.25;4971566;28;20259;-64
2023/03/29 04:18:45;;;;;;;2.97;2.53;;;;;;;0.31;44.68;95376.66;4996054;28;20235;-67
2023/03/29 04:21:11;;;;;;;2.50;2.30;;;;;;;0.29;44.49;95375.88;4961095;28;20227;-67
2023/03/29 04:23:37;;;;;;;4.50;2.43;;;;;;;0.14;44.79;95371.53;4966769;28;20197;-65
2023/03/29 04:26:02;;;;;;;4.23;2.60;;;;;;;0.36;44.70;95385.00;4971291;28;20192;-67
2023/03/29 04:28:28;;;;;;;2.60;2.40;;;;;;;0.32;44.42;95380.06;4996423;28;20219;-63
2023/03/29 04:30:53;;;;;;;4.90;2.50;;;;;;;0.38;44.06;95378.00;4969361;28;20216;-65
2023/03/29 04:33:19;;;;;;;2.50;2.30;;;;;;;0.52;44.12;95382.44;4963049;28;20244;-66
2023/03/29 04:35:45;;;;;;;2.93;2.50;;;;;;;0.19;44.66;95383.31;4972199;28;20228;-63
2023/03/29 04:38:11;;;;;;;3.73;2.83;;;;;;;0.34;44.19;95397.16;4970561;28;20223;-65
2023/03/29 04:40:37;;;;;;;2.70;2.50;;;;;;;0.47;44.21;95404.28;4974058;28;20225;-66
2023/03/29 04:43:03;;;;;;;2.53;2.30;;;;;;;0.48;43.83;95386.09;4993908;28;20248;-67
2023/03/29 04:45:28;;;;;;;2.90;2.70;;;;;;;0.36;44.56;95387.59;4960238;28;20379;-66
2023/03/29 04:48:00;;;;;;;4.87;2.80;;;;;;;0.64;44.02;95405.06;4969602;28;20224;-66
2023/03/29 04:50:27;;;;;;;4.30;3.20;;;;;;;0.56;43.80;95409.84;4972500;28;20239;-64
2023/03/29 04:52:52;;;;;;;2.70;2.50;;;;;;;0.60;44.09;95394.97;4969049;28;20220;-65
2023/03/29 04:55:18;;;;;;;3.70;3.03;;;;;;;0.81;43.50;95409.34;4968558;28;20662;-65
2023/03/29 04:57:43;;;;;;;4.33;2.70;;;;;;;0.61;43.77;95404.38;4962720;28;20330;-66
2023/03/29 05:00:16;;;;;;;4.00;3.10;;;;;;;0.71;43.74;95417.69;4964131;28;20266;-66
2023/03/29 05:02:45;;;;;;;2.97;2.67;;;;;;;0.68;43.92;95410.91;4963745;28;20220;-66
2023/03/29 05:05:11;;;;;;;4.13;2.80;;;;;;;0.67;43.52;95422.19;4968980;28;20263;-63
2023/03/29 05:07:36;;;;;;;2.57;2.27;;;;;;;0.85;42.95;95418.59;4969151;28;20293;-64
2023/03/29 05:10:03;;;;;;;3.77;2.20;;;;;;;0.90;42.94;95433.06;4970710;28;20230;-65
2023/03/29 05:12:29;;;;;;;2.40;2.20;;;;;;;0.86;42.61;95422.03;4965897;28;20221;-64
2023/03/29 05:14:55;;;;;;;2.40;2.20;;;;;;;0.69;43.22;95424.69;4955009;28;20224;-62
2023/03/29 05:17:21;;;;;;;3.63;2.40;;;;;;;0.77;43.36;95431.13;4943286;28;20223;-64
2023/03/29 05:19:46;;;;;;;4.97;3.00;;;;;;;0.99;42.67;95435.13;4988982;28;20252;-64
2023/03/29 05:22:12;;;;;;;3.80;2.93;;;;;;;1.18;41.42;95451.34;4963761;28;20232;-65
2023/03/29 05:24:38;;;;;;;4.33;2.20;;;;;;;1.05;41.20;95450.34;4991320;28;20240;-65
2023/03/29 05:27:04;;;;;;;4.90;2.43;;;;;;;1.10;40.85;95445.75;4992565;28;20260;-66
2023/03/29 05:29:31;;;;;;;3.20;2.60;;;;;;;1.02;40.99;95460.88;4969644;28;20192;-66
2023/03/29 05:31:58;;;;;;;2.80;2.50;;;;;;;1.01;41.25;95460.03;4980268;28;20465;-66
2023/03/29 05:34:24;;;;;;;4.63;2.87;;;;;;;1.04;41.43;95459.88;4994566;28;20236;-65
2023/03/29 05:36:50;;;;;;;2.40;2.20;;;;;;;0.93;41.38;95453.59;4993752;28;20224;-66
2023/03/29 05:39:16;;;;;;;3.87;2.43;;;;;;;0.98;41.80;95455.00;4968536;28;20224;-65
2023/03/29 05:41:41;;;;;;;4.10;2.63;;;;;;;1.09;41.65;95454.44;4969300;28;20204;-65
2023/03/29 05:44:07;;;;;;;5.30;2.80;;;;;;;1.35;41.57;95465.13;4966475;28;20185;-65
2023/03/29 05:46:33;;;;;;;4.13;2.80;;;;;;;1.52;41.09;95459.81;4960661;28;20220;-65
2023/03/29 05:48:58;;;;;;;2.60;2.40;;;;;;;1.44;41.38;95462.03;4967104;28;20215;-67
2023/03/29 05:51:24;;;;;;;3.13;2.83;;;;;;;1.52;41.24;95473.66;4966932;28;20228;-66
2023/03/29 05:53:50;;;;;;;3.67;2.30;;;;;;;1.48;41.07;95466.13;4950326;28;20224;-66
2023/03/29 05:56:17;;;;;;;3.67;2.80;;;;;;;1.62;40.87;95467.94;4961402;28;20180;-67
2023/03/29 05:58:43;;;;;;;3.60;2.67;;;;;;;1.86;40.46;95476.91;4967414;28;20306;-67
2023/03/29 06:01:17;;;;;;;4.43;2.67;;;;;;;1.93;40.48;95467.03;4969028;28;20308;-67
2023/03/29 06:03:43;;;;;;;2.90;2.50;;;;;;;1.99;40.04;95471.84;4977880;28;20219;-66
2023/03/29 06:06:09;;;;;;;3.57;2.70;;;;;;;1.95;39.99;95466.03;4968235;28;20219;-67
2023/03/29 06:08:35;;;;;;;3.00;2.70;;;;;;;1.98;40.11;95477.97;4969523;28;20215;-66
2023/03/29 06:11:02;;;;;;;3.00;2.70;;;;;;;2.07;39.75;95469.66;4970326;28;20243;-67
2023/03/29 06:13:28;;;;;;;2.83;2.60;;;;;;;2.17;40.11;95477.75;4970219;28;20223;-67
2023/03/29 06:15:54;;;;;;;2.90;2.50;;;;;;;2.26;39.55;95481.56;4967264;28;20224;-68
2023/03/29 06:18:19;;;;;;;3.97;2.87;;;;;;;2.31;39.22;95489.91;4967400;28;20216;-68
2023/03/29 06:20:51;;;;;;;3.60;2.80;;;;;;;2.33;39.77;95485.47;4989888;28;20180;-68
2023/03/29 06:23:21;;;;;;;4.30;2.90;;;;;;;2.42;39.50;95490.09;4965249;28;20204;-67
2023/03/29 06:25:48;;;;;;;4.20;2.20;;;;;;;2.42;38.45;95483.16;4956566;28;20429;-66
2023/03/29 06:28:15;;;;;;;3.10;2.80;;;;;;;2.49;38.54;95490.59;4992328;28;20275;-70
2023/03/29 06:30:41;;;;;;;3.60;2.60;;;;;;;2.54;38.78;95491.13;4965474;28;20227;-70
2023/03/29 06:33:07;;;;;;;4.67;3.37;;;;;;;2.51;38.71;95489.53;4963026;28;20236;-70
2023/03/29 06:35:34;;;;;;;7.13;3.70;;;;;;;2.43;38.84;95500.41;4964060;28;20196;-68
2023/03/29 06:38:00;;;;;;;4.40;2.70;;;;;;;2.53;38.72;95505.88;4968215;28;20181;-68
2023/03/29 06:40:26;;;;;;;3.63;2.70;;;;;;;2.62;38.21;95502.75;4958511;28;20238;-69
2023/03/29 06:42:56;;;;;;;4.47;2.53;;;;;;;2.58;38.84;95501.25;4966190;28;20221;-65
2023/03/29 06:45:34;;;;;;;3.03;2.20;;;;;;;2.60;38.26;95512.38;4959555;28;20224;-70
2023/03/29 06:47:59;;;;;;;2.97;2.67;;;;;;;2.71;37.93;95514.34;4962210;28;20283;-69
2023/03/29 06:50:25;;;;;;;3.97;2.27;;;;;;;2.59;38.37;95509.88;4961632;28;20261;-66
2023/03/29 06:52:51;;;;;;;3.27;2.37;;;;;;;2.71;38.16;95513.50;4964116;28;20224;-70
2023/03/29 06:55:17;;;;;;;3.23;2.23;;;;;;;2.77;38.11;95519.16;4965656;28;20252;-71
2023/03/29 06:57:43;;;;;;;3.20;2.43;;;;;;;2.77;38.25;95516.56;4967906;28;20231;-67
2023/03/29 07:00:26;;;;;;;3.90;2.50;;;;;;;2.72;37.64;95513.41;4965969;28;20227;-70
2023/03/29 07:02:53;;;;;;;4.83;2.20;;;;;;;3.03;36.85;95511.56;4966276;28;20239;-68
2023/03/29 07:05:19;;;;;;;3.53;2.47;;;;;;;3.06;36.78;95504.41;4991682;28;20205;-68
2023/03/29 07:08:12;;;;;;;4.07;2.20;;;;;;;3.41;36.24;95505.75;4992653;28;20279;-74
2023/03/29 07:10:41;;;;;;;3.87;2.10;;;;;;;3.21;36.19;95499.22;4961414;28;20672;-67
2023/03/29 07:13:11;;;;;;;4.63;2.30;;;;;;;3.04;36.14;95513.22;4958984;28;20224;-69
2023/03/29 07:15:36;;;;;;;2.83;2.20;;;;;;;3.51;34.92;95504.25;4970525;28;20228;-67
2023/03/29 07:18:03;;;;;;;2.10;1.90;;;;;;;3.22;35.67;95513.84;4968499;28;20569;-67
2023/03/29 07:20:29;;;;;;;3.83;1.50;;;;;;;3.19;35.12;95501.06;4966908;28;20275;-67
2023/03/29 07:22:56;;;;;;;2.63;1.80;;;;;;;3.27;34.70;95501.41;4959264;28;20212;-64
2023/03/29 07:25:23;;;;;;;1.67;1.40;;;;;;;3.35;34.88;95506.97;4964061;28;20231;-63
2023/03/29 07:27:49;;;;;;;2.80;1.67;;;;;;;3.61;34.68;95502.72;4986131;28;20239;-64
2023/03/29 07:30:17;;;;;;;1.93;1.57;;;;;;;3.36;34.75;95497.41;4962283;28;20220;-65
2023/03/29 07:32:45;;;;;;;2.03;1.83;;;;;;;3.53;34.80;95508.41;4972190;28;20184;-63
2023/03/29 07:35:12;;;;;;;3.73;2.10;;;;;;;3.50;34.86;95506.00;4971026;28;20181;-65
2023/03/29 07:37:41;;;;;;;4.70;1.90;;;;;;;3.46;34.54;95512.31;4993430;28;20224;-65
2023/03/29 07:40:10;;;;;;;3.13;1.80;;;;;;;3.53;34.86;95494.59;4988422;28;20231;-65
2023/03/29 07:42:35;;;;;;;2.50;2.03;;;;;;;3.67;34.68;95519.72;4955139;28;20236;-64
2023/03/29 07:45:05;;;;;;;3.60;2.10;;;;;;;3.79;34.20;95489.47;4992605;28;20220;-66
2023/03/29 07:47:31;;;;;;;3.10;2.27;;;;;;;3.83;34.04;95498.75;4959757;28;20252;-67
2023/03/29 07:49:58;;;;;;;3.00;1.90;;;;;;;3.65;34.38;95493.78;4972879;28;20259;-65
2023/03/29 07:52:23;;;;;;;2.17;1.80;;;;;;;3.39;34.53;95489.41;4972147;28;20212;-69
2023/03/29 07:54:49;;;;;;;3.40;2.00;;;;;;;3.48;34.60;95474.06;4972688;28;20279;-67
2023/03/29 07:57:14;;;;;;;2.07;1.80;;;;;;;3.33;34.71;95480.22;4973033;28;20227;-68
2023/03/29 07:59:40;;;;;;;2.37;1.90;;;;;;;3.57;34.63;95490.00;4968805;28;20251;-70
2023/03/29 08:02:06;;;;;;;4.43;2.00;;;;;;;3.68;34.10;95456.34;4971458;28;20220;-68
2023/03/29 08:04:31;;;;;;;2.43;2.23;;;;;;;3.83;33.30;95472.75;4992619;28;20221;-68
2023/03/29 08:06:57;;;;;;;2.57;1.70;;;;;;;3.80;32.93;95483.34;4968891;28;20252;-66
2023/03/29 08:09:23;;;;;;;2.53;1.70;;;;;;;3.67;32.97;95459.91;4970515;28;20234;-65
2023/03/29 08:11:48;;;;;;;3.80;2.30;;;;;;;3.82;33.43;95452.84;4973152;28;20307;-67
2023/03/29 08:14:14;;;;;;;4.13;2.20;;;;;;;3.83;33.81;95455.38;4971612;28;20243;-68
2023/03/29 08:16:39;;;;;;;2.40;2.00;;;;;;;4.15;32.55;95450.63;4964635;28;20344;-66
2023/03/29 08:19:05;;;;;;;2.27;1.60;;;;;;;4.14;32.98;95458.53;4968065;28;20221;-66
2023/03/29 08:21:31;;;;;;;2.07;1.77;;;;;;;3.95;33.04;95458.91;4970280;28;20730;-64
2023/03/29 08:23:56;;;;;;;1.80;1.50;;;;;;;3.91;32.49;95440.09;4971143;28;20224;-68
2023/03/29 08:26:22;;;;;;;2.00;1.60;;;;;;;4.03;32.71;95474.03;4969090;28;20206;-69
2023/03/29 08:28:47;;;;;;;2.30;1.70;;;;;;;3.81;32.09;95444.22;4970160;28;20236;-68
2023/03/29 08:31:14;;;;;;;3.33;1.90;;;;;;;3.98;32.49;95441.34;4996700;28;20308;-68
2023/03/29 08:33:41;;;;;;;3.03;1.80;;;;;;;4.30;32.07;95474.78;4973727;28;20219;-65
2023/03/29 08:36:07;;;;;;;2.60;2.03;;;;;;;4.30;31.79;95453.13;4995698;28;20692;-68
2023/03/29 08:38:32;;;;;;;2.50;1.70;;;;;;;3.96;32.13;95448.41;4962527;28;20197;-62
2023/03/29 08:44:42;;;;;;;2.90;2.30;;;;;;;4.03;31.67;95459.25;4964767;28;20243;-63
2023/03/29 08:47:07;;;;;;;3.07;2.23;;;;;;;4.03;31.23;95456.66;4992185;28;20695;-64
2023/03/29 08:49:36;;;;;;;1.77;1.43;;;;;;;4.03;30.79;95450.63;4995034;28;20335;-64
2023/03/29 08:52:09;;;;;;;3.10;1.90;;;;;;;3.95;30.78;95449.34;4971256;28;20262;-66
2023/03/29 08:54:42;;;;;;;4.30;1.67;;;;;;;4.09;29.32;95450.19;4967734;28;20221;-65
2023/03/29 08:57:44;;;;;;;2.70;1.30;;;;;;;4.39;28.55;95442.94;4970465;28;20268;-69
2023/03/29 09:00:21;;;;;;;2.93;1.50;;;;;;;4.24;28.07;95451.78;4955389;28;20285;-67
2023/03/29 09:02:48;;;;;;;5.03;1.60;;;;;;;4.33;27.69;95432.97;4952864;28;20626;-68
2023/03/29 09:05:28;;;;;;;3.33;1.70;;;;;;;4.37;28.32;95437.00;4953132;28;20223;-69
2023/03/29 09:07:54;;;;;;;3.43;1.50;;;;;;;4.56;27.83;95425.34;4949187;28;20234;-63
2023/03/29 09:10:27;;;;;;;4.07;1.73;;;;;;;4.34;28.65;95434.63;4958832;28;20236;-63
2023/03/29 09:13:07;;;;;;;5.90;2.03;;;;;;;4.66;28.75;95430.78;4956107;28;20231;-62
2023/03/29 09:15:43;;;;;;;3.70;1.53;;;;;;;4.69;28.60;95446.19;4963070;28;20232;-66
2023/03/29 09:18:21;;;;;;;3.13;1.73;;;;;;;4.74;27.73;95425.84;4965913;28;20231;-66
2023/03/29 09:21:02;;;;;;;4.03;1.53;;;;;;;4.89;27.88;95422.16;4947807;28;20200;-66
2023/03/29 09:23:54;;;;;;;2.00;1.50;;;;;;;5.05;27.35;95429.75;4967991;28;20303;-67
2023/03/29 09:26:39;;;;;;;2.83;1.63;;;;;;;5.13;26.80;95426.59;4965898;28;20232;-63
2023/03/29 09:29:49;;;;;;;1.70;1.40;;;;;;;5.19;27.11;95408.75;4952388;28;20230;-63
2023/03/29 09:32:23;;;;;;;1.93;1.40;;;;;;;5.24;26.39;95419.69;4959762;28;20274;-62
2023/03/29 09:35:22;;;;;;;4.63;1.63;;;;;;;5.21;26.61;95416.47;4961812;28;20239;-67
2023/03/29 09:37:51;;;;;;;1.63;1.53;;;;;;;5.31;26.02;95415.69;4936889;28;20236;-64
2023/03/29 09:40:57;;;;;;;1.90;1.40;;;;;;;5.27;26.41;95410.81;4934262;28;20288;-68
2023/03/29 09:43:33;;;;;;;1.50;1.40;;;;;;;5.43;26.29;95418.38;4874865;29;20239;-64
2023/03/29 09:46:09;;;;;;;1.97;1.20;;;;;;;5.40;26.15;95397.72;4875504;29;20321;-65
2023/03/29 09:48:38;;;;;;;2.53;1.63;;;;;;;5.44;26.56;95409.59;4862576;29;20326;-63
2023/03/29 09:51:06;;;;;;;2.27;1.80;;;;;;;5.71;27.67;95430.25;4876000;29;20295;-64
2023/03/29 09:53:32;;;;;;;2.73;1.40;;;;;;;5.72;27.19;95424.94;4880576;29;20183;-64
2023/03/29 09:56:00;;;;;;;1.63;1.40;;;;;;;5.80;26.60;95413.06;4860430;29;20209;-64
2023/03/29 09:58:29;;;;;;;3.33;1.70;;;;;;;5.89;24.56;95409.81;4875811;29;20234;-64
2023/03/29 10:01:00;;;;;;;2.73;1.40;;;;;;;5.87;24.30;95412.50;4859216;29;20238;-64
2023/03/29 10:03:28;;;;;;;2.77;1.37;;;;;;;6.05;23.58;95419.97;4864256;29;20243;-64
2023/03/29 10:05:58;;;;;;;4.50;1.53;;;;;;;6.27;22.68;95429.63;4858088;29;21156;-64
2023/03/29 10:08:29;;;;;;;1.93;1.40;;;;;;;6.11;23.29;95402.06;4856814;29;20220;-65
2023/03/29 10:10:59;;;;;;;2.33;1.60;;;;;;;6.26;23.21;95418.38;4859751;29;20224;-64
2023/03/29 10:13:30;;;;;;;3.43;1.83;;;;;;;6.18;23.66;95402.44;4878697;28;20263;-64
2023/03/29 10:16:06;;;;;;;2.13;1.10;;;;;;;6.14;23.13;95406.22;4994940;28;20232;-64
2023/03/29 10:18:39;;;;;;;3.07;1.30;;;;;;;6.16;23.38;95399.94;4977573;28;20236;-64
2023/03/29 10:21:06;;;;;;;3.67;1.60;;;;;;;6.03;23.09;95386.13;4997246;28;20362;-66
2023/03/29 10:23:35;;;;;;;1.67;1.50;;;;;;;5.95;23.55;95389.31;4960079;28;20239;-65
2023/03/29 10:26:03;;;;;;;1.53;1.33;;;;;;;6.23;23.88;95397.72;4967689;28;20266;-66
2023/03/29 10:28:30;;;;;;;1.97;1.40;;;;;;;6.26;23.35;95380.97;4977091;28;20277;-65
2023/03/29 10:31:00;;;;;;;1.83;1.10;;;;;;;6.38;22.73;95403.53;4995317;28;20224;-66
2023/03/29 10:33:31;;;;;;;1.90;1.43;;;;;;;6.57;23.06;95384.66;4967188;28;20217;-65
2023/03/29 10:35:58;;;;;;;1.77;1.30;;;;;;;6.79;22.38;95409.97;4970496;28;20235;-65
2023/03/29 10:38:27;;;;;;;3.67;2.20;;;;;;;6.68;22.73;95383.84;4963968;28;20196;-65
2023/03/29 10:40:54;;;;;;;3.60;1.43;;;;;;;6.78;22.50;95392.63;4965978;28;20297;-66
2023/03/29 10:43:23;;;;;;;4.53;1.50;;;;;;;6.99;21.83;95403.19;4964642;28;20362;-66
2023/03/29 10:46:04;;;;;;;4.23;1.57;;;;;;;6.96;22.10;95378.13;4968499;28;20232;-68
2023/03/29 10:48:30;;;;;;;1.73;1.20;;;;;;;6.93;22.31;95365.31;4969938;28;20251;-67
2023/03/29 10:51:00;;;;;;;1.83;1.40;;;;;;;7.16;21.54;95388.78;4967622;28;20236;-66
2023/03/29 10:53:29;;;;;;;1.97;1.10;;;;;;;7.24;21.33;95374.16;4971630;28;20184;-66
2023/03/29 10:56:03;;;;;;;6.43;1.47;;;;;;;7.43;21.20;95370.03;4967531;28;20231;-66
2023/03/29 10:58:32;;;;;;;2.60;1.47;;;;;;;7.29;21.68;95364.13;4989731;28;20239;-65
2023/03/29 11:00:57;;;;;;;2.23;1.37;;;;;;;7.41;21.88;95364.13;4968290;28;20232;-65
2023/03/29 11:03:51;;;;;;;2.63;1.30;;;;;;;7.61;20.85;95372.97;4963286;28;20232;-65
2023/03/29 11:06:40;;;;;;;1.87;1.20;;;;;;;7.78;20.62;95372.44;5003894;28;20224;-67
2023/03/29 11:09:42;;;;;;;1.93;1.13;;;;;;;7.77;20.59;95364.69;4964745;28;20228;-68
2023/03/29 11:12:13;;;;;;;2.10;1.30;;;;;;;8.01;20.98;95370.53;4965316;28;20226;-67
2023/03/29 11:14:57;;;;;;;2.07;1.40;;;;;;;8.13;21.28;95352.97;4956636;28;20203;-67
2023/03/29 11:17:36;;;;;;;2.10;1.60;;;;;;;8.18;20.74;95364.72;4958580;28;20672;-66
2023/03/29 11:20:13;;;;;;;1.83;1.40;;;;;;;8.11;20.47;95334.75;4960921;28;20230;-65
2023/03/29 11:23:12;;;;;;;1.57;1.20;;;;;;;8.23;20.73;95340.72;4952305;28;20370;-66
2023/03/29 11:26:01;;;;;;;4.07;1.20;;;;;;;8.51;20.22;95359.41;4955372;28;20228;-66
2023/03/29 11:28:34;;;;;;;2.13;1.30;;;;;;;8.31;20.32;95343.56;4954640;28;20223;-66
2023/03/29 11:31:22;;;;;;;2.03;1.10;;;;;;;8.44;20.36;95353.03;4963390;28;20255;-64
2023/03/29 11:34:06;;;;;;;1.80;1.20;;;;;;;8.41;21.30;95343.63;4964818;28;20262;-66
2023/03/29 11:36:59;;;;;;;2.43;1.40;;;;;;;8.76;20.95;95353.72;4959258;28;20227;-67
2023/03/29 11:39:53;;;;;;;1.63;1.33;;;;;;;8.52;20.71;95340.09;4946565;28;20228;-67
2023/03/29 11:42:23;;;;;;;2.20;1.70;;;;;;;8.74;20.54;95352.19;4945464;28;20263;-67
2023/03/29 11:44:53;;;;;;;2.13;1.57;;;;;;;8.72;20.22;95341.84;4957487;28;20242;-66
2023/03/29 11:47:25;;;;;;;2.63;1.30;;;;;;;8.92;20.48;95362.88;4951724;29;20808;-66
2023/03/29 11:50:21;;;;;;;1.33;1.23;;;;;;;8.82;19.39;95371.56;4969768;28;20229;-65
2023/03/29 11:52:58;;;;;;;2.47;1.20;;;;;;;8.55;20.18;95329.34;4973180;28;20232;-66
2023/03/29 11:55:25;;;;;;;1.40;1.30;;;;;;;8.70;20.34;95348.19;4966784;28;20239;-69
2023/03/29 11:58:38;;;;;;;3.23;1.30;;;;;;;8.84;20.27;95346.00;4971777;28;20224;-66
2023/03/29 12:01:09;;;;;;;3.10;1.40;;;;;;;8.82;20.57;95328.75;4966459;28;20253;-66